sensor_id;sensor_type;location;lat;lon;timestamp;P1;durP1;ratioP1;P2;durP2;ratioP2
21458;SDS011;10891;49.350;19.386;2022-08-19T00:00:32;30.48;;;18.02;;
21458;SDS011;10891;49.350;19.386;2022-08-19T00:02:59;27.75;;;17.10;;
21458;SDS011;10891;49.350;19.386;2022-08-19T00:05:26;22.33;;;17.45;;
21458;SDS011;10891;49.350;19.386;2022-08-19T00:07:53;23.02;;;17.05;;
21458;SDS011;10891;49.350;19.386;2022-08-19T00:10:20;30.00;;;18.00;;
21458;SDS011;10891;49.350;19.386;2022-08-19T00:12:49;23.67;;;17.77;;
21458;SDS011;10891;49.350;19.386;2022-08-19T00:15:18;24.60;;;18.02;;
21458;SDS011;10891;49.350;19.386;2022-08-19T00:17:46;26.17;;;17.73;;
21458;SDS011;10891;49.350;19.386;2022-08-19T00:20:14;22.42;;;18.60;;
21458;SDS011;10891;49.350;19.386;2022-08-19T00:22:43;23.95;;;18.20;;
21458;SDS011;10891;49.350;19.386;2022-08-19T00:25:11;28.27;;;18.23;;
21458;SDS011;10891;49.350;19.386;2022-08-19T00:27:39;21.98;;;17.75;;
21458;SDS011;10891;49.350;19.386;2022-08-19T00:30:06;23.90;;;18.75;;
21458;SDS011;10891;49.350;19.386;2022-08-19T00:32:35;22.80;;;18.35;;
21458;SDS011;10891;49.350;19.386;2022-08-19T00:35:03;27.50;;;18.60;;
21458;SDS011;10891;49.350;19.386;2022-08-19T00:37:30;25.23;;;18.98;;
21458;SDS011;10891;49.350;19.386;2022-08-19T00:39:58;26.90;;;17.83;;
21458;SDS011;10891;49.350;19.386;2022-08-19T00:42:25;26.58;;;18.88;;
21458;SDS011;10891;49.350;19.386;2022-08-19T00:44:54;26.52;;;18.10;;
21458;SDS011;10891;49.350;19.386;2022-08-19T00:47:21;24.75;;;18.42;;
21458;SDS011;10891;49.350;19.386;2022-08-19T00:49:50;22.67;;;17.90;;
21458;SDS011;10891;49.350;19.386;2022-08-19T00:52:20;22.60;;;18.58;;
21458;SDS011;10891;49.350;19.386;2022-08-19T00:54:47;28.92;;;18.52;;
21458;SDS011;10891;49.350;19.386;2022-08-19T00:57:17;27.02;;;19.00;;
21458;SDS011;10891;49.350;19.386;2022-08-19T00:59:46;28.70;;;20.25;;
21458;SDS011;10891;49.350;19.386;2022-08-19T01:02:15;28.33;;;19.00;;
21458;SDS011;10891;49.350;19.386;2022-08-19T01:04:42;25.75;;;19.08;;
21458;SDS011;10891;49.350;19.386;2022-08-19T01:07:10;30.33;;;20.45;;
21458;SDS011;10891;49.350;19.386;2022-08-19T01:09:38;25.35;;;19.55;;
21458;SDS011;10891;49.350;19.386;2022-08-19T01:12:05;31.08;;;23.00;;
21458;SDS011;10891;49.350;19.386;2022-08-19T01:14:33;30.08;;;21.88;;
21458;SDS011;10891;49.350;19.386;2022-08-19T01:17:01;28.55;;;21.60;;
21458;SDS011;10891;49.350;19.386;2022-08-19T01:19:29;27.38;;;20.60;;
21458;SDS011;10891;49.350;19.386;2022-08-19T01:21:59;25.52;;;21.40;;
21458;SDS011;10891;49.350;19.386;2022-08-19T01:24:28;29.70;;;21.98;;
21458;SDS011;10891;49.350;19.386;2022-08-19T01:26:56;32.60;;;22.30;;
21458;SDS011;10891;49.350;19.386;2022-08-19T01:29:23;34.85;;;22.33;;
21458;SDS011;10891;49.350;19.386;2022-08-19T01:31:50;35.22;;;23.02;;
21458;SDS011;10891;49.350;19.386;2022-08-19T01:34:18;34.10;;;21.95;;
21458;SDS011;10891;49.350;19.386;2022-08-19T01:36:45;30.92;;;21.00;;
21458;SDS011;10891;49.350;19.386;2022-08-19T01:39:14;31.55;;;21.80;;
21458;SDS011;10891;49.350;19.386;2022-08-19T01:41:43;29.52;;;21.73;;
21458;SDS011;10891;49.350;19.386;2022-08-19T01:44:11;31.42;;;21.80;;
21458;SDS011;10891;49.350;19.386;2022-08-19T01:46:38;34.92;;;24.27;;
21458;SDS011;10891;49.350;19.386;2022-08-19T01:49:05;30.65;;;22.27;;
21458;SDS011;10891;49.350;19.386;2022-08-19T01:51:33;33.08;;;23.35;;
21458;SDS011;10891;49.350;19.386;2022-08-19T01:54:00;30.55;;;23.92;;
21458;SDS011;10891;49.350;19.386;2022-08-19T01:56:28;33.90;;;24.35;;
21458;SDS011;10891;49.350;19.386;2022-08-19T01:58:58;32.17;;;23.95;;
21458;SDS011;10891;49.350;19.386;2022-08-19T02:01:26;37.03;;;23.75;;
21458;SDS011;10891;49.350;19.386;2022-08-19T02:03:56;33.00;;;22.48;;
21458;SDS011;10891;49.350;19.386;2022-08-19T02:06:25;28.52;;;22.65;;
21458;SDS011;10891;49.350;19.386;2022-08-19T02:08:52;30.05;;;23.50;;
21458;SDS011;10891;49.350;19.386;2022-08-19T02:11:20;30.70;;;22.55;;
21458;SDS011;10891;49.350;19.386;2022-08-19T02:13:48;28.67;;;22.92;;
21458;SDS011;10891;49.350;19.386;2022-08-19T02:16:17;34.20;;;24.35;;
21458;SDS011;10891;49.350;19.386;2022-08-19T02:18:45;29.77;;;22.83;;
21458;SDS011;10891;49.350;19.386;2022-08-19T02:21:13;29.92;;;22.25;;
21458;SDS011;10891;49.350;19.386;2022-08-19T02:23:40;27.40;;;21.90;;
21458;SDS011;10891;49.350;19.386;2022-08-19T02:26:08;27.00;;;21.63;;
21458;SDS011;10891;49.350;19.386;2022-08-19T02:28:35;28.08;;;21.67;;
21458;SDS011;10891;49.350;19.386;2022-08-19T02:31:02;33.30;;;22.02;;
21458;SDS011;10891;49.350;19.386;2022-08-19T02:33:31;27.45;;;21.08;;
21458;SDS011;10891;49.350;19.386;2022-08-19T02:35:58;28.35;;;21.88;;
21458;SDS011;10891;49.350;19.386;2022-08-19T02:38:25;28.27;;;21.48;;
21458;SDS011;10891;49.350;19.386;2022-08-19T02:40:52;33.65;;;22.60;;
21458;SDS011;10891;49.350;19.386;2022-08-19T02:43:20;37.70;;;21.83;;
21458;SDS011;10891;49.350;19.386;2022-08-19T02:45:47;27.92;;;21.73;;
21458;SDS011;10891;49.350;19.386;2022-08-19T02:48:15;27.98;;;21.02;;
21458;SDS011;10891;49.350;19.386;2022-08-19T02:50:45;25.80;;;21.38;;
21458;SDS011;10891;49.350;19.386;2022-08-19T02:53:12;29.15;;;20.13;;
21458;SDS011;10891;49.350;19.386;2022-08-19T02:55:43;29.17;;;20.45;;
21458;SDS011;10891;49.350;19.386;2022-08-19T02:58:10;25.92;;;19.95;;
21458;SDS011;10891;49.350;19.386;2022-08-19T03:00:41;27.38;;;19.48;;
21458;SDS011;10891;49.350;19.386;2022-08-19T03:03:09;29.52;;;20.85;;
21458;SDS011;10891;49.350;19.386;2022-08-19T03:05:36;27.67;;;20.20;;
21458;SDS011;10891;49.350;19.386;2022-08-19T03:08:05;28.38;;;20.65;;
21458;SDS011;10891;49.350;19.386;2022-08-19T03:10:39;31.38;;;21.77;;
21458;SDS011;10891;49.350;19.386;2022-08-19T03:13:09;26.13;;;20.58;;
21458;SDS011;10891;49.350;19.386;2022-08-19T03:15:38;33.88;;;21.80;;
21458;SDS011;10891;49.350;19.386;2022-08-19T03:18:06;28.17;;;20.65;;
21458;SDS011;10891;49.350;19.386;2022-08-19T03:20:33;31.13;;;22.38;;
21458;SDS011;10891;49.350;19.386;2022-08-19T03:23:01;29.85;;;22.50;;
21458;SDS011;10891;49.350;19.386;2022-08-19T03:25:29;32.83;;;21.75;;
21458;SDS011;10891;49.350;19.386;2022-08-19T03:27:56;31.80;;;22.30;;
21458;SDS011;10891;49.350;19.386;2022-08-19T03:30:23;29.23;;;21.65;;
21458;SDS011;10891;49.350;19.386;2022-08-19T03:32:50;28.52;;;20.88;;
21458;SDS011;10891;49.350;19.386;2022-08-19T03:35:18;28.42;;;20.02;;
21458;SDS011;10891;49.350;19.386;2022-08-19T03:37:45;26.35;;;21.13;;
21458;SDS011;10891;49.350;19.386;2022-08-19T03:40:12;28.23;;;20.33;;
21458;SDS011;10891;49.350;19.386;2022-08-19T03:42:41;29.85;;;20.80;;
21458;SDS011;10891;49.350;19.386;2022-08-19T03:45:08;25.55;;;19.58;;
21458;SDS011;10891;49.350;19.386;2022-08-19T03:47:36;27.65;;;21.65;;
21458;SDS011;10891;49.350;19.386;2022-08-19T03:50:03;27.50;;;21.67;;
21458;SDS011;10891;49.350;19.386;2022-08-19T03:52:31;25.17;;;20.90;;
21458;SDS011;10891;49.350;19.386;2022-08-19T03:54:58;27.17;;;21.30;;
21458;SDS011;10891;49.350;19.386;2022-08-19T03:57:25;27.75;;;20.23;;
21458;SDS011;10891;49.350;19.386;2022-08-19T03:59:54;30.08;;;20.73;;
21458;SDS011;10891;49.350;19.386;2022-08-19T04:02:21;23.80;;;18.98;;
21458;SDS011;10891;49.350;19.386;2022-08-19T04:04:48;28.08;;;18.42;;
21458;SDS011;10891;49.350;19.386;2022-08-19T04:07:15;30.05;;;19.38;;
21458;SDS011;10891;49.350;19.386;2022-08-19T04:09:46;24.02;;;17.77;;
21458;SDS011;10891;49.350;19.386;2022-08-19T04:12:14;25.08;;;18.25;;
21458;SDS011;10891;49.350;19.386;2022-08-19T04:14:41;26.95;;;19.58;;
21458;SDS011;10891;49.350;19.386;2022-08-19T04:17:09;25.73;;;18.77;;
21458;SDS011;10891;49.350;19.386;2022-08-19T04:19:37;25.75;;;17.77;;
21458;SDS011;10891;49.350;19.386;2022-08-19T04:22:05;29.02;;;18.90;;
21458;SDS011;10891;49.350;19.386;2022-08-19T04:24:33;22.98;;;17.45;;
21458;SDS011;10891;49.350;19.386;2022-08-19T04:27:00;24.95;;;16.08;;
21458;SDS011;10891;49.350;19.386;2022-08-19T04:29:28;24.02;;;17.02;;
21458;SDS011;10891;49.350;19.386;2022-08-19T04:31:56;20.98;;;15.68;;
21458;SDS011;10891;49.350;19.386;2022-08-19T04:34:26;22.27;;;16.58;;
21458;SDS011;10891;49.350;19.386;2022-08-19T04:36:55;21.80;;;17.23;;
21458;SDS011;10891;49.350;19.386;2022-08-19T04:39:23;21.65;;;15.50;;
21458;SDS011;10891;49.350;19.386;2022-08-19T04:42:12;22.65;;;16.05;;
21458;SDS011;10891;49.350;19.386;2022-08-19T04:44:57;22.77;;;14.65;;
21458;SDS011;10891;49.350;19.386;2022-08-19T04:47:24;24.33;;;14.68;;
21458;SDS011;10891;49.350;19.386;2022-08-19T04:49:53;19.02;;;15.32;;
21458;SDS011;10891;49.350;19.386;2022-08-19T04:52:20;18.63;;;14.80;;
21458;SDS011;10891;49.350;19.386;2022-08-19T04:54:47;23.73;;;14.50;;
21458;SDS011;10891;49.350;19.386;2022-08-19T04:57:15;23.30;;;15.23;;
21458;SDS011;10891;49.350;19.386;2022-08-19T04:59:42;21.73;;;15.02;;
21458;SDS011;10891;49.350;19.386;2022-08-19T05:02:09;26.42;;;14.80;;
21458;SDS011;10891;49.350;19.386;2022-08-19T05:04:36;20.42;;;14.93;;
21458;SDS011;10891;49.350;19.386;2022-08-19T05:07:06;21.38;;;15.00;;
21458;SDS011;10891;49.350;19.386;2022-08-19T05:09:34;22.30;;;14.65;;
21458;SDS011;10891;49.350;19.386;2022-08-19T05:12:01;27.52;;;15.02;;
21458;SDS011;10891;49.350;19.386;2022-08-19T05:14:29;24.00;;;14.07;;
21458;SDS011;10891;49.350;19.386;2022-08-19T05:16:56;19.58;;;13.52;;
21458;SDS011;10891;49.350;19.386;2022-08-19T05:19:23;20.80;;;14.27;;
21458;SDS011;10891;49.350;19.386;2022-08-19T05:22:09;20.38;;;15.27;;
21458;SDS011;10891;49.350;19.386;2022-08-19T05:24:54;20.95;;;13.82;;
21458;SDS011;10891;49.350;19.386;2022-08-19T05:27:22;20.50;;;13.50;;
21458;SDS011;10891;49.350;19.386;2022-08-19T05:29:49;30.13;;;15.00;;
21458;SDS011;10891;49.350;19.386;2022-08-19T05:32:16;23.60;;;15.40;;
21458;SDS011;10891;49.350;19.386;2022-08-19T05:34:43;24.10;;;15.25;;
21458;SDS011;10891;49.350;19.386;2022-08-19T05:37:12;28.77;;;14.45;;
21458;SDS011;10891;49.350;19.386;2022-08-19T05:39:39;22.08;;;14.25;;
21458;SDS011;10891;49.350;19.386;2022-08-19T05:42:08;19.58;;;14.00;;
21458;SDS011;10891;49.350;19.386;2022-08-19T05:44:36;26.80;;;14.00;;
21458;SDS011;10891;49.350;19.386;2022-08-19T05:47:05;20.48;;;13.75;;
21458;SDS011;10891;49.350;19.386;2022-08-19T05:49:34;25.20;;;15.20;;
21458;SDS011;10891;49.350;19.386;2022-08-19T05:52:02;24.25;;;13.88;;
21458;SDS011;10891;49.350;19.386;2022-08-19T05:54:31;23.23;;;14.13;;
21458;SDS011;10891;49.350;19.386;2022-08-19T05:56:59;29.50;;;14.18;;
21458;SDS011;10891;49.350;19.386;2022-08-19T05:59:27;21.50;;;13.73;;
21458;SDS011;10891;49.350;19.386;2022-08-19T06:01:55;20.13;;;13.63;;
21458;SDS011;10891;49.350;19.386;2022-08-19T06:04:22;21.65;;;13.77;;
21458;SDS011;10891;49.350;19.386;2022-08-19T06:06:50;25.17;;;15.52;;
21458;SDS011;10891;49.350;19.386;2022-08-19T06:09:19;18.35;;;14.50;;
21458;SDS011;10891;49.350;19.386;2022-08-19T06:11:48;22.58;;;15.20;;
21458;SDS011;10891;49.350;19.386;2022-08-19T06:14:19;17.75;;;14.43;;
21458;SDS011;10891;49.350;19.386;2022-08-19T06:16:47;22.10;;;15.05;;
21458;SDS011;10891;49.350;19.386;2022-08-19T06:19:16;18.80;;;13.88;;
21458;SDS011;10891;49.350;19.386;2022-08-19T06:21:44;17.52;;;13.70;;
21458;SDS011;10891;49.350;19.386;2022-08-19T06:24:13;21.67;;;14.02;;
21458;SDS011;10891;49.350;19.386;2022-08-19T06:26:42;18.83;;;13.15;;
21458;SDS011;10891;49.350;19.386;2022-08-19T06:29:11;18.02;;;13.02;;
21458;SDS011;10891;49.350;19.386;2022-08-19T06:31:40;16.52;;;13.57;;
21458;SDS011;10891;49.350;19.386;2022-08-19T06:34:08;22.55;;;14.27;;
21458;SDS011;10891;49.350;19.386;2022-08-19T06:36:36;16.20;;;13.90;;
21458;SDS011;10891;49.350;19.386;2022-08-19T06:39:04;23.65;;;14.63;;
21458;SDS011;10891;49.350;19.386;2022-08-19T06:41:34;18.95;;;13.90;;
21458;SDS011;10891;49.350;19.386;2022-08-19T06:44:02;20.75;;;14.32;;
21458;SDS011;10891;49.350;19.386;2022-08-19T06:46:30;16.48;;;14.48;;
21458;SDS011;10891;49.350;19.386;2022-08-19T06:48:58;20.50;;;14.57;;
21458;SDS011;10891;49.350;19.386;2022-08-19T06:51:25;19.63;;;15.23;;
21458;SDS011;10891;49.350;19.386;2022-08-19T06:53:54;22.23;;;13.80;;
21458;SDS011;10891;49.350;19.386;2022-08-19T06:56:26;20.13;;;13.63;;
21458;SDS011;10891;49.350;19.386;2022-08-19T06:58:58;21.10;;;13.85;;
21458;SDS011;10891;49.350;19.386;2022-08-19T07:01:26;18.33;;;13.85;;
21458;SDS011;10891;49.350;19.386;2022-08-19T07:03:54;19.02;;;13.10;;
21458;SDS011;10891;49.350;19.386;2022-08-19T07:06:22;20.85;;;11.52;;
21458;SDS011;10891;49.350;19.386;2022-08-19T07:08:49;16.25;;;12.55;;
21458;SDS011;10891;49.350;19.386;2022-08-19T07:11:17;17.85;;;11.27;;
21458;SDS011;10891;49.350;19.386;2022-08-19T07:13:45;14.68;;;11.40;;
21458;SDS011;10891;49.350;19.386;2022-08-19T07:16:14;16.63;;;11.60;;
21458;SDS011;10891;49.350;19.386;2022-08-19T07:18:42;17.70;;;12.48;;
21458;SDS011;10891;49.350;19.386;2022-08-19T07:21:11;14.63;;;11.50;;
21458;SDS011;10891;49.350;19.386;2022-08-19T07:23:39;17.27;;;11.38;;
21458;SDS011;10891;49.350;19.386;2022-08-19T07:26:07;18.15;;;11.55;;
21458;SDS011;10891;49.350;19.386;2022-08-19T07:28:34;17.33;;;11.48;;
21458;SDS011;10891;49.350;19.386;2022-08-19T07:31:04;16.80;;;10.93;;
21458;SDS011;10891;49.350;19.386;2022-08-19T07:33:32;18.70;;;12.20;;
21458;SDS011;10891;49.350;19.386;2022-08-19T07:36:02;18.30;;;12.40;;
21458;SDS011;10891;49.350;19.386;2022-08-19T07:38:31;22.17;;;12.73;;
21458;SDS011;10891;49.350;19.386;2022-08-19T07:40:59;15.98;;;13.18;;
21458;SDS011;10891;49.350;19.386;2022-08-19T07:43:27;17.35;;;12.77;;
21458;SDS011;10891;49.350;19.386;2022-08-19T07:45:54;20.20;;;12.25;;
21458;SDS011;10891;49.350;19.386;2022-08-19T07:48:22;16.38;;;11.73;;
21458;SDS011;10891;49.350;19.386;2022-08-19T07:50:51;14.63;;;12.35;;
21458;SDS011;10891;49.350;19.386;2022-08-19T07:53:20;17.92;;;13.23;;
21458;SDS011;10891;49.350;19.386;2022-08-19T07:55:48;19.42;;;12.68;;
21458;SDS011;10891;49.350;19.386;2022-08-19T07:58:17;17.52;;;12.75;;
21458;SDS011;10891;49.350;19.386;2022-08-19T08:00:45;21.80;;;13.20;;
21458;SDS011;10891;49.350;19.386;2022-08-19T08:03:14;18.52;;;12.10;;
21458;SDS011;10891;49.350;19.386;2022-08-19T08:05:41;20.13;;;13.32;;
21458;SDS011;10891;49.350;19.386;2022-08-19T08:08:27;15.65;;;12.85;;
21458;SDS011;10891;49.350;19.386;2022-08-19T08:11:13;19.83;;;12.32;;
21458;SDS011;10891;49.350;19.386;2022-08-19T08:13:41;18.73;;;13.02;;
21458;SDS011;10891;49.350;19.386;2022-08-19T08:16:08;15.55;;;11.82;;
21458;SDS011;10891;49.350;19.386;2022-08-19T08:18:36;17.60;;;13.07;;
21458;SDS011;10891;49.350;19.386;2022-08-19T08:21:07;15.43;;;12.15;;
21458;SDS011;10891;49.350;19.386;2022-08-19T08:23:35;19.77;;;12.13;;
21458;SDS011;10891;49.350;19.386;2022-08-19T08:26:02;17.25;;;12.60;;
21458;SDS011;10891;49.350;19.386;2022-08-19T08:28:31;15.75;;;9.25;;
21458;SDS011;10891;49.350;19.386;2022-08-19T08:30:58;25.73;;;11.95;;
21458;SDS011;10891;49.350;19.386;2022-08-19T08:33:26;20.08;;;11.63;;
21458;SDS011;10891;49.350;19.386;2022-08-19T08:35:55;15.65;;;11.07;;
21458;SDS011;10891;49.350;19.386;2022-08-19T08:38:22;15.55;;;12.65;;
21458;SDS011;10891;49.350;19.386;2022-08-19T08:40:50;17.75;;;13.02;;
21458;SDS011;10891;49.350;19.386;2022-08-19T08:43:22;19.70;;;12.20;;
21458;SDS011;10891;49.350;19.386;2022-08-19T08:45:54;20.85;;;13.13;;
21458;SDS011;10891;49.350;19.386;2022-08-19T08:48:24;21.20;;;12.63;;
21458;SDS011;10891;49.350;19.386;2022-08-19T08:50:55;22.92;;;11.82;;
21458;SDS011;10891;49.350;19.386;2022-08-19T08:53:23;25.63;;;11.13;;
21458;SDS011;10891;49.350;19.386;2022-08-19T08:55:51;14.35;;;11.30;;
21458;SDS011;10891;49.350;19.386;2022-08-19T08:58:20;19.88;;;11.68;;
21458;SDS011;10891;49.350;19.386;2022-08-19T09:00:51;22.98;;;11.93;;
21458;SDS011;10891;49.350;19.386;2022-08-19T09:03:20;16.52;;;11.82;;
21458;SDS011;10891;49.350;19.386;2022-08-19T09:05:52;19.77;;;11.85;;
21458;SDS011;10891;49.350;19.386;2022-08-19T09:08:24;24.40;;;11.98;;
